No data was retrieved for https://query.yahooapis.com/v1/public/yql?q=select+%2A+from+weather.forecast+where+woeid%3D973505&format=xml&u=c


Lesvos Island / Mitilini / Pligoni / SV8DTD



Thunder radar more information blitzortung!


Rain radar more information rain snow radar


Visit our other weather sites:

Template documentation
and downloads

And another site



No particular awareness of the weather is required.    There are no Weather-warnings

Nearby METAR Reports

   
EHVK - Volkel Rnlafb, Netherlands
Distance from station: SW 18 km
Updated: Wed-Jul-2020 12:56
Drizzle, Mostly Cloudy  
Drizzle, Mostly Cloudy  
   Wind: South 13 km/h
Wind: South 13 km/h
Temperature: 15°C
Dew Point: 14°C
Humidity: 94%
Barometer: 1015 hPa
Clouds: Mostly Cloudy
Visibility: More than 10 km
Cloud details: Partly Cloudy 600 ft,
Mostly Cloudy 700 ft,
Mostly Cloudy 900 ft
EHVK 080956Z AUTO 19007KT 150V250 9999 DZ SCT006 BKN007 BKN009 15/14 Q1015 YLO 22007KT 9000 SCT006 BKN008 OVC015
EDLV - Niederrhein, Germany
Distance from station: SE 25 km
Updated: Wed-Jul-2020 12:50
Light Rain, Mostly Cloudy  
Light Rain, Mostly Cloudy  
   Wind: SSW 13 km/h
Wind: SSW 13 km/h
Temperature: 14°C
Dew Point: 13°C
Humidity: 94%
Barometer: 1016 hPa
Clouds: Mostly Cloudy
Visibility: More than 10 km
Cloud details: Mostly Cloudy 900 ft
EDLV 080950Z 20007KT 9999 -RA BKN009 14/13 Q1016
EHDL - Deelen Rnlafb, Netherlands
Distance from station: N 35 km
Updated: Wed-Jul-2020 12:55
Light Rain, Drizzle, Mostly Cloudy  
Light Rain, Drizzle, Mostly Cloudy  
   Wind: SSW 11.1 km/h
Wind: SSW 11.1 km/h
Temperature: 14°C
Dew Point: 14°C
Humidity: 100%
Barometer: 1015 hPa
Clouds: Mostly Cloudy
Visibility: More than 10 km
Cloud details: Few Clouds 500 ft,
Partly Cloudy 700 ft,
Mostly Cloudy 900 ft
EHDL 080955Z AUTO 20006KT 140V250 9999 -RADZ FEW005 SCT007 BKN009 14/14 Q1015 GRN
EHEH - Eindhoven Rnlafb, Netherlands
Distance from station: SW 48 km
Updated: Wed-Jul-2020 13:02
Drizzle, Rain, Overcast  
Drizzle, Rain, Overcast  
   Wind: SSW 14.8 km/h
Wind: SSW 14.8 km/h
Temperature: 15°C
Dew Point: 14°C
Humidity: 94%
Barometer: 1015 hPa
Clouds: Overcast
Visibility: More than 10 km
Cloud details: Few Clouds 600 ft,
Mostly Cloudy 700 ft,
Overcast 800 ft
EHEH 081002Z AUTO 20008KT 170V230 9999 DZRA FEW006 BKN007 OVC008 15/14 Q1015 GRN 21008KT 9999 FEW006 SCT007 BKN025 TEMPO 4500 RADZ SCT004 BKN006 BKN008
EHGR - Gilze-Rijen Rnla, Netherlands
Distance from station: WSW 70 km
Updated: Wed-Jul-2020 12:55
Light Rain, Overcast  
Light Rain, Overcast  
   Wind: SSW 13 km/h
Wind: SSW 13 km/h
Temperature: 15°C
Dew Point: 14°C
Humidity: 94%
Barometer: 1015 hPa
Clouds: Overcast
Visibility: More than 10 km
Cloud details: Few Clouds 500 ft,
Mostly Cloudy 700 ft,
Overcast 800 ft
EHGR 080955Z AUTO 20007KT 160V260 9999 -RA FEW005 BKN007 OVC008 15/14 Q1015 RERA REDZ GRN 20007KT 8000 -DZRA SCT005 BKN006 BKN007
EBBL - Kleine-Brogel(Ba, Belgium
Distance from station: SSW 71 km
Updated: Wed-Jul-2020 12:55
Light Rain, Mostly Cloudy  
Light Rain, Mostly Cloudy  
   Wind: SSW 11.1 km/h
Wind: SSW 11.1 km/h
Temperature: 14°C
Dew Point: 14°C
Humidity: 100%
Barometer: 1016 hPa
Clouds: Mostly Cloudy
Visibility: 6 km
Cloud details: Partly Cloudy 500 ft,
Mostly Cloudy 700 ft
EBBL 080955Z 20006KT 6000 -RA SCT005 BKN007 14/14 Q1016 YLO YLO TEMPO GRN

Script developed by  Saratoga-weather.org Adapted for the template by  Weerstation Leuven

You find our weather info also at:

European Weather Network

Citizen Weather Observer Program (CWOP)

Equipment we use:

Weather-station
Davis VP2

Weather-program
Meteohub

Davis VP2

Meteohub